.
WxDataArchive / Data Records for 2012-04-30
2012-04-29 April 2012 2012-05-01

Data Records for Monday, 30 April 2012

Time	Temp	Chill	HIndex	Humid	Dewpt	 Wind 	HiWind	WindDir	Rain 	Barom 
-----	----	-----	------	-----	-----	------	------	-------	-----	----- 
00:00	52.5	52.5	52.5	27	19.5	3	9	112	0.00	30.152 
00:05	52.5	52.5	52.5	27	19.5	2	6	112	0.00	30.152 
00:10	52.3	52.3	52.3	28	20.2	3	7	90	0.00	30.152 
00:15	52.2	52.2	52.2	28	20.1	4	7	112	0.00	30.135 
00:20	52.0	52.0	52.0	28	19.9	4	7	90	0.00	30.135 
00:25	52.0	52.0	52.0	28	19.9	4	11	90	0.00	30.135 
00:30	51.9	51.9	51.9	29	20.7	3	7	112	0.00	30.137 
00:35	51.7	51.7	51.7	29	20.5	2	4	90	0.00	30.137 
00:40	51.7	51.7	51.7	30	21.3	3	5	90	0.00	30.137 
00:45	51.7	51.7	51.7	30	21.3	3	6	68	0.00	30.131 
00:50	51.7	51.7	51.7	30	21.3	3	10	90	0.00	30.131 
00:55	51.7	51.7	51.7	31	22.1	3	7	112	0.00	30.131 
01:00	51.7	51.7	51.7	31	22.1	2	5	90	0.00	30.131 
01:05	51.7	51.7	51.7	30	21.3	3	5	90	0.00	30.131 
01:10	51.7	51.7	51.7	31	22.1	3	7	90	0.00	30.131 
01:15	51.6	51.6	51.6	31	22.0	3	5	112	0.00	30.124 
01:20	51.6	51.6	51.6	31	22.0	3	5	90	0.00	30.124 
01:25	51.4	51.4	51.4	32	22.5	3	6	90	0.00	30.124 
01:30	51.1	51.1	51.1	32	22.3	2	5	90	0.00	30.122 
01:35	51.0	51.0	51.0	33	22.9	2	5	68	0.00	30.122 
01:40	51.0	51.0	51.0	33	22.9	3	7	90	0.00	30.122 
01:45	51.0	51.0	51.0	34	23.6	2	7	112	0.00	30.111 
01:50	51.0	51.0	51.0	34	23.6	3	5	90	0.00	30.111 
01:55	51.0	51.0	51.0	34	23.6	2	6	90	0.00	30.111 
02:00	50.8	50.8	50.8	34	23.5	3	6	90	0.00	30.109 
02:05	51.0	51.0	51.0	34	23.6	2	4	68	0.00	30.109 
02:10	50.8	50.8	50.8	35	24.1	3	6	90	0.00	30.109 
02:15	50.8	50.8	50.8	35	24.1	2	5	90	0.00	30.097 
02:20	50.8	50.8	50.8	35	24.1	3	6	90	0.00	30.097 
02:25	50.7	50.7	50.7	35	24.1	2	6	90	0.00	30.097 
02:30	50.5	50.5	50.5	36	24.6	2	4	90	0.00	30.089 
02:35	50.2	50.2	50.2	37	24.9	2	5	90	0.00	30.089 
02:40	50.1	50.1	50.1	37	24.9	2	4	90	0.00	30.089 
02:45	49.9	49.9	49.9	37	24.7	3	5	68	0.00	30.076 
02:50	49.8	49.8	49.8	38	25.2	2	5	68	0.00	30.076 
02:55	49.8	49.8	49.8	38	25.2	2	4	90	0.00	30.076 
03:00	49.6	49.6	49.6	39	25.7	2	5	90	0.00	30.071 
03:05	49.5	49.5	49.5	39	25.6	2	4	90	0.00	30.071 
03:10	49.4	49.4	49.4	40	26.1	1	4	90	0.00	30.071 
03:15	49.2	49.2	49.2	40	25.9	2	4	90	0.00	30.061 
03:20	49.2	49.2	49.2	39	25.3	2	4	90	0.00	30.061 
03:25	49.2	49.2	49.2	40	25.9	2	3	112	0.00	30.061 
03:30	49.2	49.2	49.2	40	25.9	2	4	112	0.00	30.061 
03:35	49.2	49.2	49.2	40	25.9	2	5	90	0.00	30.061 
03:40	49.4	49.4	49.4	40	26.1	2	4	90	0.00	30.061 
03:45	49.5	49.5	49.5	40	26.2	2	4	90	0.00	30.064 
03:50	49.6	49.6	49.6	40	26.3	2	4	90	0.00	30.064 
03:55	49.8	49.8	49.8	40	26.5	2	6	90	0.00	30.064 
04:00	49.8	49.8	49.8	40	26.5	1	4	22	0.00	30.068 
04:05	49.8	49.8	49.8	40	26.5	2	5	90	0.00	30.068 
04:10	49.9	49.9	49.9	40	26.6	2	5	90	0.00	30.068 
04:15	49.9	49.9	49.9	40	26.6	2	5	90	0.00	30.054 
04:20	50.1	50.1	50.1	40	26.7	1	5	90	0.00	30.054 
04:25	50.2	50.2	50.2	40	26.8	2	6	90	0.00	30.054 
04:30	50.2	50.2	50.2	40	26.8	2	5	90	0.00	30.052 
04:35	50.2	50.2	50.2	41	27.4	2	4	90	0.00	30.052 
04:40	50.2	50.2	50.2	40	26.8	3	8	90	0.00	30.052 
04:45	50.4	50.4	50.4	40	27.0	3	6	90	0.00	30.043 
04:50	50.4	50.4	50.4	42	28.2	2	4	112	0.00	30.043 
04:55	50.2	50.2	50.2	44	29.1	2	4	112	0.00	30.043 
05:00	50.1	50.1	50.1	45	29.6	2	5	90	0.00	30.038 
05:05	50.1	50.1	50.1	43	28.5	4	11	90	0.00	30.038 
05:10	49.9	49.9	49.9	47	30.5	1	4	68	0.00	30.038 
05:15	49.6	49.6	49.6	52	32.7	2	7	90	0.00	30.043 
05:20	49.1	49.1	49.1	60	35.8	1	4	90	0.02	30.043 
05:25	48.0	48.0	48.0	64	36.4	2	5	90	0.00	30.043 
05:30	47.3	47.3	47.3	64	35.7	2	3	90	0.00	30.030 
05:35	47.0	47.0	47.0	64	35.5	1	5	90	0.00	30.030 
05:40	47.0	47.0	47.0	63	35.1	1	4	90	0.00	30.030 
05:45	47.0	47.0	47.0	63	35.1	2	4	90	0.00	30.025 
05:50	47.0	47.0	47.0	65	35.9	1	4	90	0.00	30.025 
05:55	47.0	47.0	47.0	64	35.5	1	3	90	0.00	30.025 
06:00	47.1	47.1	47.1	63	35.2	2	5	90	0.00	30.025 
06:05	47.3	47.3	47.3	65	36.1	1	3	90	0.01	30.025 
06:10	47.1	47.1	47.1	68	37.1	0	2	90	0.00	30.025 
06:15	46.8	46.8	46.8	70	37.5	0	1	90	0.00	30.031 
06:20	46.5	46.5	46.5	71	37.6	0	0	---	0.00	30.031 
06:25	46.4	46.4	46.4	73	38.2	0	2	90	0.00	30.031 
06:30	46.4	46.4	46.4	71	37.5	1	3	90	0.00	30.024 
06:35	46.4	46.4	46.4	69	36.8	1	3	90	0.00	30.024 
06:40	46.4	46.4	46.4	70	37.2	1	4	90	0.00	30.024 
06:45	46.4	46.4	46.4	69	36.8	1	3	90	0.00	30.021 
06:50	46.5	46.5	46.5	69	36.9	1	3	90	0.00	30.021 
06:55	46.7	46.7	46.7	70	37.4	0	2	90	0.00	30.021 
07:00	46.7	46.7	46.7	69	37.1	1	4	90	0.00	30.015 
07:05	46.8	46.8	46.8	69	37.2	1	4	90	0.00	30.015 
07:10	46.8	46.8	46.8	68	36.8	2	4	90	0.00	30.015 
07:15	47.0	47.0	47.0	70	37.7	0	3	68	0.00	30.018 
07:20	47.0	47.0	47.0	69	37.4	1	4	68	0.00	30.018 
07:25	47.1	47.1	47.1	68	37.1	1	4	68	0.00	30.018 
07:30	47.3	47.3	47.3	68	37.3	0	2	68	0.00	30.035 
07:35	47.4	47.4	47.4	69	37.7	1	3	90	0.00	30.035 
07:40	47.6	47.6	47.6	68	37.6	1	4	90	0.00	30.035 
07:45	47.6	47.6	47.6	68	37.6	0	2	90	0.00	30.034 
07:50	47.7	47.7	47.7	69	38.0	1	4	90	0.00	30.034 
07:55	47.9	47.9	47.9	68	37.9	1	3	90	0.00	30.034 
08:00	48.0	48.0	48.0	68	37.9	0	3	90	0.00	30.032 
08:05	48.2	48.2	48.2	68	38.1	2	5	68	0.00	30.032 
08:10	48.3	48.3	48.3	68	38.2	1	3	90	0.00	30.032 
08:15	48.6	48.6	48.6	69	38.9	1	5	90	0.00	30.026 
08:20	48.8	48.8	48.8	67	38.3	1	3	90	0.00	30.026 
08:25	49.1	49.1	49.1	65	37.8	2	6	90	0.00	30.026 
08:30	49.4	49.4	49.4	66	38.5	0	4	90	0.00	30.020 
08:35	49.8	49.8	49.8	65	38.5	1	4	90	0.00	30.020 
08:40	50.1	50.1	50.1	65	38.8	0	2	90	0.00	30.020 
08:45	50.7	50.7	50.7	64	39.0	1	4	90	0.00	30.017 
08:50	51.1	51.1	51.1	63	38.9	2	5	68	0.00	30.017 
08:55	51.7	51.7	51.7	61	38.7	1	4	68	0.00	30.017 
09:00	52.2	52.2	52.2	61	39.2	1	4	68	0.00	30.009 
09:05	52.5	52.5	52.5	62	39.9	1	4	68	0.00	30.009 
09:10	52.5	52.5	52.5	61	39.4	1	3	68	0.00	30.009 
09:15	52.5	52.5	52.5	62	39.9	1	3	68	0.00	30.008 
09:20	52.5	52.5	52.5	62	39.9	0	2	68	0.00	30.008 
09:25	52.8	52.8	52.8	63	40.6	0	2	68	0.00	30.008 
09:30	53.1	53.1	53.1	63	40.8	0	2	68	0.00	30.015 
09:35	53.5	53.5	53.5	62	40.8	0	3	68	0.00	30.015 
09:40	53.9	53.9	53.9	62	41.2	0	2	68	0.00	30.015 
09:45	54.4	54.4	54.4	63	42.1	0	1	68	0.00	30.005 
09:50	54.8	54.8	54.8	62	42.0	1	2	68	0.00	30.005 
09:55	55.3	55.3	55.3	61	42.1	0	2	68	0.00	30.005 
10:00	55.7	55.7	55.7	62	42.9	0	2	68	0.00	29.995 
10:05	56.2	56.2	56.2	60	42.5	0	1	68	0.00	29.995 
10:10	56.6	56.6	56.6	60	42.9	0	2	68	0.00	29.995 
10:15	57.3	57.3	57.3	62	44.4	0	0	---	0.00	29.993 
10:20	58.1	58.1	58.1	60	44.3	0	2	68	0.00	29.993 
10:25	59.0	59.0	59.0	60	45.1	0	2	68	0.00	29.993 
10:30	60.1	60.1	60.1	58	45.3	1	3	68	0.00	29.973 
10:35	61.0	61.0	61.0	58	46.1	1	4	68	0.00	29.973 
10:40	62.1	62.1	62.1	58	47.1	0	2	90	0.00	29.973 
10:45	63.1	63.1	63.1	58	48.1	1	3	90	0.00	29.958 
10:50	63.4	63.4	63.4	60	49.3	1	3	90	0.00	29.958 
10:55	63.7	63.7	63.7	59	49.1	1	3	90	0.00	29.958 
11:00	64.0	64.0	64.0	61	50.3	0	1	90	0.00	29.944 
11:05	64.5	64.5	64.5	62	51.2	0	2	22	0.00	29.944 
11:10	65.0	65.0	65.0	61	51.2	0	1	22	0.00	29.944 
11:15	65.6	65.6	65.6	62	52.2	0	2	22	0.00	29.939 
11:20	66.1	66.1	66.1	63	53.1	0	1	22	0.00	29.939 
11:25	66.4	66.4	66.4	61	52.5	0	3	22	0.00	29.939 
11:30	66.8	66.8	66.8	61	52.9	1	2	22	0.00	29.933 
11:35	67.4	67.4	67.4	59	52.6	0	2	22	0.00	29.933 
11:40	67.8	67.8	67.8	59	52.9	0	2	22	0.00	29.933 
11:45	68.3	68.3	68.3	62	54.8	0	0	---	0.00	29.916 
11:50	68.9	68.9	68.9	62	55.3	1	3	22	0.00	29.916 
11:55	69.8	69.8	69.8	60	55.3	0	2	22	0.00	29.916 
12:00	70.4	70.4	70.4	58	54.9	0	1	22	0.00	29.923 
12:05	70.8	70.8	70.8	60	56.2	0	1	22	0.00	29.923 
12:10	71.3	71.3	71.3	59	56.2	0	3	270	0.00	29.923 
12:15	71.6	71.6	71.6	59	56.5	0	2	270	0.00	29.928 
12:20	71.8	71.8	71.8	59	56.7	0	1	270	0.00	29.928 
12:25	71.8	71.8	71.8	58	56.2	0	2	270	0.00	29.928 
12:30	71.6	71.6	71.6	59	56.5	0	2	270	0.00	29.914 
12:35	72.0	72.0	72.0	59	56.9	1	3	270	0.00	29.914 
12:40	72.8	72.8	72.8	57	56.7	2	6	270	0.00	29.914 
12:45	73.5	73.5	73.5	57	57.3	2	4	270	0.00	29.919 
12:50	74.2	74.2	74.2	55	57.0	1	4	270	0.00	29.919 
12:55	74.6	74.6	74.6	56	57.8	1	4	270	0.00	29.919 
13:00	75.1	75.1	77.5	58	59.3	1	4	270	0.00	29.905 
13:05	75.6	75.6	77.9	53	57.2	1	3	270	0.00	29.905 
13:10	76.3	76.3	78.2	52	57.4	0	2	270	0.00	29.905 
13:15	76.8	76.8	78.5	51	57.3	0	2	270	0.00	29.901 
13:20	77.0	77.0	78.6	50	56.9	1	3	270	0.00	29.901 
13:25	77.4	77.4	78.8	50	57.3	1	4	270	0.00	29.901 
13:30	77.6	77.6	78.8	47	55.8	2	6	248	0.00	29.903 
13:35	77.4	77.4	78.8	49	56.7	1	3	248	0.00	29.903 
13:40	77.2	77.2	78.7	50	57.1	1	3	248	0.00	29.903 
13:45	77.2	77.2	78.7	48	56.0	2	6	248	0.00	29.900 
13:50	77.0	77.0	78.6	49	56.4	1	4	0	0.00	29.900 
13:55	76.7	76.7	78.4	49	56.1	2	4	292	0.00	29.900 
14:00	76.5	76.5	78.3	51	57.0	1	3	338	0.00	29.894 
14:05	76.8	76.8	78.5	49	56.2	2	5	248	0.00	29.894 
14:10	77.0	77.0	78.7	52	58.0	2	5	248	0.00	29.894 
14:15	77.6	77.6	79.0	51	58.0	1	4	248	0.00	29.894 
14:20	77.6	77.6	78.9	48	56.3	1	3	248	0.00	29.894 
14:25	77.4	77.4	78.8	48	56.1	1	4	248	0.00	29.894 
14:30	77.2	77.2	78.7	49	56.5	2	4	248	0.00	29.890 
14:35	77.4	77.4	78.8	49	56.7	1	3	248	0.00	29.890 
14:40	77.7	77.7	79.0	49	57.0	1	3	248	0.00	29.890 
14:45	78.1	78.1	79.2	48	56.8	1	3	248	0.00	29.881 
14:50	77.9	77.9	79.0	47	56.0	1	4	248	0.00	29.881 
14:55	77.4	77.4	78.7	47	55.6	2	4	248	0.00	29.881 
15:00	76.8	76.8	78.5	51	57.3	1	5	248	0.00	29.883 
15:05	76.8	76.8	78.5	51	57.3	0	2	248	0.00	29.883 
15:10	76.5	76.5	78.4	52	57.5	1	2	248	0.00	29.883 
15:15	76.0	76.0	78.1	54	58.1	1	2	248	0.00	29.876 
15:20	75.4	75.4	77.7	55	58.1	0	2	248	0.00	29.876 
15:25	75.1	75.1	77.6	56	58.3	0	2	248	0.00	29.876 
15:30	75.1	75.1	77.6	55	57.8	1	2	248	0.00	29.863 
15:35	74.6	74.6	74.6	57	58.3	1	4	248	0.00	29.863 
15:40	74.0	74.0	74.0	57	57.8	0	2	270	0.00	29.863 
15:45	73.5	73.5	73.5	59	58.3	0	1	270	0.00	29.851 
15:50	72.8	72.8	72.8	60	58.1	1	5	270	0.00	29.851 
15:55	72.0	72.0	72.0	63	58.7	1	3	270	0.00	29.851 
16:00	70.4	70.4	70.4	70	60.1	3	6	270	0.04	29.891 
16:05	67.8	67.8	67.8	78	60.7	2	4	292	0.07	29.891 
16:10	66.1	66.1	66.1	84	61.1	2	5	315	0.05	29.891 
16:15	65.2	65.2	65.2	87	61.2	1	4	315	0.11	29.880 
16:20	64.7	64.7	64.7	88	61.1	1	2	315	0.02	29.880 
16:25	64.3	64.3	64.3	90	61.3	1	3	315	0.01	29.880 
16:30	64.3	64.3	64.3	91	61.6	0	1	315	0.02	29.886 
16:35	64.2	64.2	64.2	91	61.5	0	1	315	0.00	29.886 
16:40	64.2	64.2	64.2	92	61.8	0	0	---	0.00	29.886 
16:45	64.2	64.2	64.2	92	61.8	0	0	---	0.00	29.873 
16:50	64.2	64.2	64.2	92	61.8	0	0	---	0.01	29.873 
16:55	64.2	64.2	64.2	92	61.8	0	0	---	0.00	29.873 
17:00	64.2	64.2	64.2	93	62.1	0	0	---	0.00	29.881 
17:05	64.2	64.2	64.2	93	62.1	0	0	---	0.00	29.881 
17:10	64.3	64.3	64.3	93	62.2	0	0	---	0.00	29.881 
17:15	64.3	64.3	64.3	93	62.2	0	1	315	0.00	29.884 
17:20	64.3	64.3	64.3	93	62.2	0	0	---	0.00	29.884 
17:25	64.3	64.3	64.3	94	62.5	0	0	---	0.00	29.884 
17:30	64.3	64.3	64.3	94	62.5	0	1	315	0.00	29.883 
17:35	64.2	64.2	64.2	94	62.4	0	1	315	0.00	29.883 
17:40	64.0	64.0	64.0	94	62.2	0	2	315	0.00	29.883 
17:45	63.9	63.9	63.9	94	62.1	1	3	315	0.01	29.873 
17:50	63.5	63.5	63.5	93	61.4	1	4	315	0.01	29.873 
17:55	63.2	63.2	63.2	93	61.1	2	7	270	0.02	29.873 
18:00	63.1	63.1	63.1	93	61.0	3	6	315	0.05	29.911 
18:05	62.7	62.7	62.7	93	60.6	1	3	292	0.04	29.911 
18:10	62.4	62.4	62.4	93	60.3	1	4	292	0.02	29.911 
18:15	62.4	62.4	62.4	94	60.6	2	5	315	0.02	29.901 
18:20	62.3	62.3	62.3	94	60.5	2	4	292	0.03	29.901 
18:25	62.3	62.3	62.3	94	60.5	2	5	292	0.01	29.901 
18:30	62.3	62.3	62.3	94	60.5	1	4	292	0.02	29.901 
18:35	62.1	62.1	62.1	94	60.3	1	4	292	0.02	29.901 
18:40	62.1	62.1	62.1	94	60.3	1	4	315	0.01	29.901 
18:45	62.0	62.0	62.0	94	60.2	0	2	315	0.02	29.896 
18:50	62.0	62.0	62.0	94	60.2	0	1	315	0.01	29.896 
18:55	62.0	62.0	62.0	95	60.5	0	1	315	0.02	29.896 
19:00	62.0	62.0	62.0	95	60.5	0	1	315	0.02	29.901 
19:05	62.0	62.0	62.0	95	60.5	0	0	---	0.00	29.901 
19:10	62.0	62.0	62.0	95	60.5	0	0	---	0.01	29.901 
19:15	62.0	62.0	62.0	95	60.5	0	0	---	0.00	29.896 
19:20	62.0	62.0	62.0	95	60.5	0	0	---	0.00	29.896 
19:25	62.0	62.0	62.0	95	60.5	0	0	---	0.00	29.896 
19:30	62.0	62.0	62.0	95	60.5	0	0	---	0.01	29.895 
19:35	62.0	62.0	62.0	95	60.5	0	0	---	0.00	29.895 
19:40	62.0	62.0	62.0	95	60.5	0	0	---	0.00	29.895 
19:45	62.0	62.0	62.0	95	60.5	0	0	---	0.00	29.886 
19:50	62.0	62.0	62.0	95	60.5	0	1	315	0.00	29.886 
19:55	61.8	61.8	61.8	95	60.3	0	0	---	0.00	29.886 
20:00	61.8	61.8	61.8	95	60.3	0	1	315	0.00	29.895 
20:05	61.8	61.8	61.8	95	60.3	0	0	---	0.00	29.895 
20:10	61.8	61.8	61.8	95	60.3	0	0	---	0.00	29.895 
20:15	61.6	61.6	61.6	95	60.2	0	0	---	0.00	29.890 
20:20	61.6	61.6	61.6	95	60.2	0	0	---	0.00	29.890 
20:25	61.6	61.6	61.6	95	60.2	0	1	315	0.00	29.890 
20:30	61.5	61.5	61.5	95	60.1	0	0	---	0.00	29.897 
20:35	61.5	61.5	61.5	96	60.3	0	0	---	0.00	29.897 
20:40	61.5	61.5	61.5	96	60.3	0	0	---	0.01	29.897 
20:45	61.5	61.5	61.5	96	60.3	0	0	---	0.00	29.893 
20:50	61.3	61.3	61.3	96	60.1	0	0	---	0.00	29.893 
20:55	61.3	61.3	61.3	96	60.1	0	0	---	0.00	29.893 
21:00	61.3	61.3	61.3	96	60.1	0	0	---	0.00	29.898 
21:05	61.3	61.3	61.3	96	60.1	0	0	---	0.00	29.898 
21:10	61.2	61.2	61.2	96	60.0	0	0	---	0.00	29.898 
21:15	61.2	61.2	61.2	96	60.0	0	0	---	0.00	29.896 
21:20	61.2	61.2	61.2	96	60.0	0	0	---	0.00	29.896 
21:25	61.2	61.2	61.2	96	60.0	0	1	315	0.00	29.896 
21:30	61.2	61.2	61.2	96	60.0	0	0	---	0.00	29.894 
21:35	61.0	61.0	61.0	96	59.8	0	1	315	0.00	29.894 
21:40	61.0	61.0	61.0	96	59.8	0	0	---	0.00	29.894 
21:45	60.7	60.7	60.7	96	59.6	0	0	---	0.00	29.896 
21:50	60.5	60.5	60.5	96	59.4	0	0	---	0.00	29.896 
21:55	60.4	60.4	60.4	96	59.3	0	0	---	0.00	29.896 
22:00	60.4	60.4	60.4	96	59.3	0	1	315	0.00	29.903 
22:05	60.5	60.5	60.5	96	59.4	0	0	---	0.00	29.903 
22:10	60.5	60.5	60.5	96	59.4	0	0	---	0.00	29.903 
22:15	60.7	60.7	60.7	96	59.6	0	0	---	0.00	29.901 
22:20	60.7	60.7	60.7	96	59.6	0	0	---	0.00	29.901 
22:25	60.7	60.7	60.7	96	59.6	0	1	315	0.00	29.901 
22:30	60.7	60.7	60.7	96	59.6	0	0	---	0.00	29.901 
22:35	60.7	60.7	60.7	96	59.6	0	0	---	0.00	29.901 
22:40	60.9	60.9	60.9	96	59.7	0	1	315	0.00	29.901 
22:45	60.9	60.9	60.9	96	59.7	0	1	315	0.00	29.904 
22:50	60.9	60.9	60.9	96	59.7	0	1	315	0.00	29.904 
22:55	60.9	60.9	60.9	96	59.7	0	0	---	0.00	29.904 
23:00	60.9	60.9	60.9	96	59.7	0	1	315	0.00	29.904 
23:05	60.9	60.9	60.9	96	59.7	0	1	315	0.00	29.904 
23:10	60.9	60.9	60.9	96	59.7	0	1	315	0.00	29.904 
23:15	60.9	60.9	60.9	96	59.7	0	0	---	0.00	29.900 
23:20	61.0	61.0	61.0	96	59.8	0	1	315	0.00	29.900 
23:25	61.0	61.0	61.0	96	59.8	0	1	315	0.00	29.900 
23:30	61.0	61.0	61.0	96	59.8	0	1	315	0.00	29.900 
23:35	61.0	61.0	61.0	96	59.8	0	1	315	0.00	29.900 
23:40	61.0	61.0	61.0	96	59.8	0	1	315	0.00	29.900 
23:45	61.0	61.0	61.0	96	59.8	0	2	315	0.00	29.900 
23:50	61.0	61.0	61.0	96	59.8	0	2	315	0.00	29.900 
23:55	61.0	61.0	61.0	96	59.8	0	2	315	0.00	29.900 

CoCoRaHS
IN-AL-39
A2 Web Hosting
Creative Commons License
GoDaddy
search engine by freefind advanced

loaded 2018-11-14 03:39:54 • last modified 2010-11-18 10:43:29
Privacy PolicyDisclaimer
• wx.awcolley.com is powered by PmWiki v.2002016 •
• all content (unless otherwise noted) © 2018 A W Colley